Aérodrome :
LOGIN :

S'inscrire | Disclaimer

   EN    FR    IT 

 










Légende :    VFR   VFR Marginal   IFR   IFR Intensif   IFR Très Intensif
Visi : 
Plafond : 
>= 8 km
>= 3000ft
5 à 8 km
1000 à 3000 ft
1500m à 5 km
500 à 1000 ft
800 à 1500m
200 à 500 ft
< 800m
< 200 ft
Symboles :   Orages  Brouillard  Fortes neiges  Fortes précipitations  Vent > 20 kt
SIGMETs :   Divers  Orages  Givrage  Turbulence  Onde Orograph.  Cendres Volcan.







- Altitude de l'aérodrome : 465 ft
- Code IATA : LEJ


EDDP - Leipzig Halle

DERNIER METAR :
  • 220150Z 25012KT CAVOK 09/06 Q1019 NOSIG

METARs EXPIRÉS :
  • 220120Z 25008KT 9999 FEW033 09/06 Q1019 NOSIG
  • 220050Z 28009KT CAVOK 10/05 Q1019 NOSIG
  • 220020Z 29012KT 9999 SCT036 BKN050 11/06 Q1019 NOSIG
  • 212350Z 30016KT 9999 SCT040 SCT060 11/05 Q1019 TEMPO 25015G25KT
  • 212320Z 28012KT CAVOK 11/05 Q1019 NOSIG

TAF TAF EDDP
Valide du 22 à 00h jusqu'au 23 à 00h UTC


212300Z 2200/2224 28012KT CAVOK
BECMG 2203/2206 27015G25KT
TEMPO 2203/2209 SHRA BKN012 BKN030CB
PROB30
TEMPO 2209/2217 30020G35KT TSRA SCT030CB
Pas de NOTAMs connus pour ce terrain.



MET'MAP, la Météo Aéronautique d'un coup d'oeil ! - Copyright ORBIFLY Décembre 2007 - Disclaimer

ORBIFLY MET'MAP TEAM :

Programmation & Développement : Alexandra Zaïnal
Conception & Développement : Baudouin d'Aumeries
Co-Programmation & Développement : Marc-Olivier Méhu
Soutien technique & logistique : Manuel Goepfert

Contact : metmap@orbifly.com




SOURCES & CREDITS :

   NOAA